sensor_id;sensor_type;location;lat;lon;timestamp;temperature;humidity
10468;DHT22;5281;48.878;9.394;2023-06-14T00:01:02;15.00;78.70
10468;DHT22;5281;48.878;9.394;2023-06-14T00:03:31;14.90;79.70
10468;DHT22;5281;48.878;9.394;2023-06-14T00:05:58;14.90;79.40
10468;DHT22;5281;48.878;9.394;2023-06-14T00:08:25;14.80;79.80
10468;DHT22;5281;48.878;9.394;2023-06-14T00:10:53;14.70;80.40
10468;DHT22;5281;48.878;9.394;2023-06-14T00:13:20;14.70;80.70
10468;DHT22;5281;48.878;9.394;2023-06-14T00:15:47;14.70;80.50
10468;DHT22;5281;48.878;9.394;2023-06-14T00:18:14;14.70;80.30
10468;DHT22;5281;48.878;9.394;2023-06-14T00:20:42;14.70;80.10
10468;DHT22;5281;48.878;9.394;2023-06-14T00:23:09;14.80;80.10
10468;DHT22;5281;48.878;9.394;2023-06-14T00:25:36;14.80;80.60
10468;DHT22;5281;48.878;9.394;2023-06-14T00:28:04;14.60;80.90
10468;DHT22;5281;48.878;9.394;2023-06-14T00:30:31;14.60;81.20
10468;DHT22;5281;48.878;9.394;2023-06-14T00:32:57;14.60;81.60
10468;DHT22;5281;48.878;9.394;2023-06-14T00:35:24;14.50;81.70
10468;DHT22;5281;48.878;9.394;2023-06-14T00:37:51;14.50;82.10
10468;DHT22;5281;48.878;9.394;2023-06-14T00:40:20;14.40;83.30
10468;DHT22;5281;48.878;9.394;2023-06-14T00:42:47;14.30;83.10
10468;DHT22;5281;48.878;9.394;2023-06-14T00:45:15;14.40;83.30
10468;DHT22;5281;48.878;9.394;2023-06-14T00:47:42;14.30;83.20
10468;DHT22;5281;48.878;9.394;2023-06-14T00:50:10;14.30;83.20
10468;DHT22;5281;48.878;9.394;2023-06-14T00:52:37;14.20;83.50
10468;DHT22;5281;48.878;9.394;2023-06-14T00:55:04;14.20;83.90
10468;DHT22;5281;48.878;9.394;2023-06-14T00:57:31;14.20;84.00
10468;DHT22;5281;48.878;9.394;2023-06-14T00:59:58;14.20;83.60
10468;DHT22;5281;48.878;9.394;2023-06-14T01:02:26;14.30;83.10
10468;DHT22;5281;48.878;9.394;2023-06-14T01:04:53;14.30;83.00
10468;DHT22;5281;48.878;9.394;2023-06-14T01:07:33;14.30;83.40
10468;DHT22;5281;48.878;9.394;2023-06-14T01:10:12;14.30;83.30
10468;DHT22;5281;48.878;9.394;2023-06-14T01:12:50;14.30;83.50
10468;DHT22;5281;48.878;9.394;2023-06-14T01:15:17;14.30;83.70
10468;DHT22;5281;48.878;9.394;2023-06-14T01:17:46;14.30;83.80
10468;DHT22;5281;48.878;9.394;2023-06-14T01:20:17;14.10;84.40
10468;DHT22;5281;48.878;9.394;2023-06-14T01:22:50;14.00;84.80
10468;DHT22;5281;48.878;9.394;2023-06-14T01:25:18;14.00;84.60
10468;DHT22;5281;48.878;9.394;2023-06-14T01:27:47;14.00;84.40
10468;DHT22;5281;48.878;9.394;2023-06-14T01:30:15;14.10;84.20
10468;DHT22;5281;48.878;9.394;2023-06-14T01:32:42;14.00;84.50
10468;DHT22;5281;48.878;9.394;2023-06-14T01:35:09;14.00;84.60
10468;DHT22;5281;48.878;9.394;2023-06-14T01:37:35;14.00;84.50
10468;DHT22;5281;48.878;9.394;2023-06-14T01:40:06;14.00;84.30
10468;DHT22;5281;48.878;9.394;2023-06-14T01:42:35;14.00;84.10
10468;DHT22;5281;48.878;9.394;2023-06-14T01:45:05;14.20;83.80
10468;DHT22;5281;48.878;9.394;2023-06-14T01:47:32;14.40;83.30
10468;DHT22;5281;48.878;9.394;2023-06-14T01:49:59;14.40;83.00
10468;DHT22;5281;48.878;9.394;2023-06-14T01:52:26;14.50;83.00
10468;DHT22;5281;48.878;9.394;2023-06-14T01:54:53;14.60;83.50
10468;DHT22;5281;48.878;9.394;2023-06-14T01:57:21;14.50;83.60
10468;DHT22;5281;48.878;9.394;2023-06-14T01:59:48;14.50;84.00
10468;DHT22;5281;48.878;9.394;2023-06-14T02:02:15;14.40;84.20
10468;DHT22;5281;48.878;9.394;2023-06-14T02:04:41;14.40;84.40
10468;DHT22;5281;48.878;9.394;2023-06-14T02:07:08;14.40;84.50
10468;DHT22;5281;48.878;9.394;2023-06-14T02:09:35;14.30;85.10
10468;DHT22;5281;48.878;9.394;2023-06-14T02:12:02;14.20;85.70
10468;DHT22;5281;48.878;9.394;2023-06-14T02:14:30;14.20;86.10
10468;DHT22;5281;48.878;9.394;2023-06-14T02:16:56;14.10;86.40
10468;DHT22;5281;48.878;9.394;2023-06-14T02:19:24;14.10;87.40
10468;DHT22;5281;48.878;9.394;2023-06-14T02:21:50;14.10;87.30
10468;DHT22;5281;48.878;9.394;2023-06-14T02:24:17;14.00;87.60
10468;DHT22;5281;48.878;9.394;2023-06-14T02:26:44;14.00;87.60
10468;DHT22;5281;48.878;9.394;2023-06-14T02:29:10;14.00;88.10
10468;DHT22;5281;48.878;9.394;2023-06-14T02:31:41;13.90;88.30
10468;DHT22;5281;48.878;9.394;2023-06-14T02:34:08;13.90;88.70
10468;DHT22;5281;48.878;9.394;2023-06-14T02:36:35;13.90;89.20
10468;DHT22;5281;48.878;9.394;2023-06-14T02:39:07;13.80;89.70
10468;DHT22;5281;48.878;9.394;2023-06-14T02:41:35;13.70;90.40
10468;DHT22;5281;48.878;9.394;2023-06-14T02:44:01;13.60;90.40
10468;DHT22;5281;48.878;9.394;2023-06-14T02:46:28;13.60;90.60
10468;DHT22;5281;48.878;9.394;2023-06-14T02:48:56;13.60;90.90
10468;DHT22;5281;48.878;9.394;2023-06-14T02:51:23;13.60;90.90
10468;DHT22;5281;48.878;9.394;2023-06-14T02:53:49;13.60;90.90
10468;DHT22;5281;48.878;9.394;2023-06-14T02:56:16;13.50;91.00
10468;DHT22;5281;48.878;9.394;2023-06-14T02:58:44;13.50;91.70
10468;DHT22;5281;48.878;9.394;2023-06-14T03:01:11;13.60;91.80
10468;DHT22;5281;48.878;9.394;2023-06-14T03:03:39;13.60;92.10
10468;DHT22;5281;48.878;9.394;2023-06-14T03:06:07;13.60;92.30
10468;DHT22;5281;48.878;9.394;2023-06-14T03:08:35;13.60;92.30
10468;DHT22;5281;48.878;9.394;2023-06-14T03:11:04;13.60;92.20
10468;DHT22;5281;48.878;9.394;2023-06-14T03:13:31;13.60;92.20
10468;DHT22;5281;48.878;9.394;2023-06-14T03:15:58;13.60;92.10
10468;DHT22;5281;48.878;9.394;2023-06-14T03:18:28;13.60;92.00
10468;DHT22;5281;48.878;9.394;2023-06-14T03:20:55;13.60;92.00
10468;DHT22;5281;48.878;9.394;2023-06-14T03:23:25;13.70;92.00
10468;DHT22;5281;48.878;9.394;2023-06-14T03:25:51;13.70;92.40
10468;DHT22;5281;48.878;9.394;2023-06-14T03:28:18;13.60;92.60
10468;DHT22;5281;48.878;9.394;2023-06-14T03:30:45;13.60;92.70
10468;DHT22;5281;48.878;9.394;2023-06-14T03:33:12;13.60;92.80
10468;DHT22;5281;48.878;9.394;2023-06-14T03:35:39;13.70;93.40
10468;DHT22;5281;48.878;9.394;2023-06-14T03:38:05;13.70;94.00
10468;DHT22;5281;48.878;9.394;2023-06-14T03:40:33;13.70;94.30
10468;DHT22;5281;48.878;9.394;2023-06-14T03:43:00;13.70;94.50
10468;DHT22;5281;48.878;9.394;2023-06-14T03:45:27;13.80;94.50
10468;DHT22;5281;48.878;9.394;2023-06-14T03:47:53;13.80;94.40
10468;DHT22;5281;48.878;9.394;2023-06-14T03:50:22;13.80;94.40
10468;DHT22;5281;48.878;9.394;2023-06-14T03:52:48;13.80;94.40
10468;DHT22;5281;48.878;9.394;2023-06-14T03:55:15;13.80;94.50
10468;DHT22;5281;48.878;9.394;2023-06-14T03:57:44;13.70;94.80
10468;DHT22;5281;48.878;9.394;2023-06-14T04:00:11;13.70;94.80
10468;DHT22;5281;48.878;9.394;2023-06-14T04:02:38;13.60;94.90
10468;DHT22;5281;48.878;9.394;2023-06-14T04:05:05;13.60;95.10
10468;DHT22;5281;48.878;9.394;2023-06-14T04:07:34;13.50;95.10
10468;DHT22;5281;48.878;9.394;2023-06-14T04:10:06;13.50;95.30
10468;DHT22;5281;48.878;9.394;2023-06-14T04:12:33;13.60;95.40
10468;DHT22;5281;48.878;9.394;2023-06-14T04:15:01;13.60;95.50
10468;DHT22;5281;48.878;9.394;2023-06-14T04:17:28;13.60;95.70
10468;DHT22;5281;48.878;9.394;2023-06-14T04:19:55;13.60;95.80
10468;DHT22;5281;48.878;9.394;2023-06-14T04:22:24;13.60;95.70
10468;DHT22;5281;48.878;9.394;2023-06-14T04:24:54;13.70;95.70
10468;DHT22;5281;48.878;9.394;2023-06-14T04:27:20;13.60;95.70
10468;DHT22;5281;48.878;9.394;2023-06-14T04:29:50;13.70;95.70
10468;DHT22;5281;48.878;9.394;2023-06-14T04:32:23;13.70;95.80
10468;DHT22;5281;48.878;9.394;2023-06-14T04:34:51;13.80;95.70
10468;DHT22;5281;48.878;9.394;2023-06-14T04:37:19;13.80;95.70
10468;DHT22;5281;48.878;9.394;2023-06-14T04:39:46;13.90;95.60
10468;DHT22;5281;48.878;9.394;2023-06-14T04:42:13;14.00;95.70
10468;DHT22;5281;48.878;9.394;2023-06-14T04:44:41;14.10;95.40
10468;DHT22;5281;48.878;9.394;2023-06-14T04:47:09;14.70;95.20
10468;DHT22;5281;48.878;9.394;2023-06-14T04:49:38;16.00;93.60
10468;DHT22;5281;48.878;9.394;2023-06-14T04:52:06;17.70;90.40
10468;DHT22;5281;48.878;9.394;2023-06-14T04:54:33;19.50;84.50
10468;DHT22;5281;48.878;9.394;2023-06-14T04:57:02;21.40;77.70
10468;DHT22;5281;48.878;9.394;2023-06-14T04:59:29;22.90;71.20
10468;DHT22;5281;48.878;9.394;2023-06-14T05:01:58;24.20;65.50
10468;DHT22;5281;48.878;9.394;2023-06-14T05:04:26;25.30;62.20
10468;DHT22;5281;48.878;9.394;2023-06-14T05:06:54;26.30;59.00
10468;DHT22;5281;48.878;9.394;2023-06-14T05:09:22;27.10;56.90
10468;DHT22;5281;48.878;9.394;2023-06-14T05:11:48;27.80;54.90
10468;DHT22;5281;48.878;9.394;2023-06-14T05:14:16;28.40;53.60
10468;DHT22;5281;48.878;9.394;2023-06-14T05:16:42;29.10;51.60
10468;DHT22;5281;48.878;9.394;2023-06-14T05:19:09;29.60;50.70
10468;DHT22;5281;48.878;9.394;2023-06-14T05:21:36;29.90;49.80
10468;DHT22;5281;48.878;9.394;2023-06-14T05:24:05;30.20;48.90
10468;DHT22;5281;48.878;9.394;2023-06-14T05:26:32;30.50;48.10
10468;DHT22;5281;48.878;9.394;2023-06-14T05:28:59;29.50;49.10
10468;DHT22;5281;48.878;9.394;2023-06-14T05:31:27;29.10;49.20
10468;DHT22;5281;48.878;9.394;2023-06-14T05:33:54;29.40;49.60
10468;DHT22;5281;48.878;9.394;2023-06-14T05:36:21;30.20;49.20
10468;DHT22;5281;48.878;9.394;2023-06-14T05:38:47;31.20;47.60
10468;DHT22;5281;48.878;9.394;2023-06-14T05:41:15;32.30;45.70
10468;DHT22;5281;48.878;9.394;2023-06-14T05:43:42;32.70;45.70
10468;DHT22;5281;48.878;9.394;2023-06-14T05:46:09;33.60;44.60
10468;DHT22;5281;48.878;9.394;2023-06-14T05:48:36;34.40;43.20
10468;DHT22;5281;48.878;9.394;2023-06-14T05:51:02;35.00;42.20
10468;DHT22;5281;48.878;9.394;2023-06-14T05:53:29;35.20;41.80
10468;DHT22;5281;48.878;9.394;2023-06-14T05:55:56;35.30;42.00
10468;DHT22;5281;48.878;9.394;2023-06-14T05:58:24;35.70;41.30
10468;DHT22;5281;48.878;9.394;2023-06-14T06:00:51;36.20;40.30
10468;DHT22;5281;48.878;9.394;2023-06-14T06:03:19;36.80;40.10
10468;DHT22;5281;48.878;9.394;2023-06-14T06:05:46;37.50;38.90
10468;DHT22;5281;48.878;9.394;2023-06-14T06:08:13;38.00;38.80
10468;DHT22;5281;48.878;9.394;2023-06-14T06:10:42;38.70;38.00
10468;DHT22;5281;48.878;9.394;2023-06-14T06:13:09;39.10;37.60
10468;DHT22;5281;48.878;9.394;2023-06-14T06:15:37;39.20;37.40
10468;DHT22;5281;48.878;9.394;2023-06-14T06:18:04;39.40;37.50
10468;DHT22;5281;48.878;9.394;2023-06-14T06:20:30;39.80;37.00
10468;DHT22;5281;48.878;9.394;2023-06-14T06:22:57;39.70;35.60
10468;DHT22;5281;48.878;9.394;2023-06-14T06:25:24;39.40;36.20
10468;DHT22;5281;48.878;9.394;2023-06-14T06:27:51;39.60;36.20
10468;DHT22;5281;48.878;9.394;2023-06-14T06:30:19;38.90;36.70
10468;DHT22;5281;48.878;9.394;2023-06-14T06:32:47;38.30;37.20
10468;DHT22;5281;48.878;9.394;2023-06-14T06:35:14;37.90;37.20
10468;DHT22;5281;48.878;9.394;2023-06-14T06:37:42;36.10;37.70
10468;DHT22;5281;48.878;9.394;2023-06-14T06:40:09;34.60;39.20
10468;DHT22;5281;48.878;9.394;2023-06-14T06:42:36;33.80;40.30
10468;DHT22;5281;48.878;9.394;2023-06-14T06:45:03;34.30;39.80
10468;DHT22;5281;48.878;9.394;2023-06-14T06:47:30;35.70;38.20
10468;DHT22;5281;48.878;9.394;2023-06-14T06:49:58;37.10;37.10
10468;DHT22;5281;48.878;9.394;2023-06-14T06:52:25;38.60;35.80
10468;DHT22;5281;48.878;9.394;2023-06-14T06:54:52;39.90;34.40
10468;DHT22;5281;48.878;9.394;2023-06-14T06:57:20;41.00;33.20
10468;DHT22;5281;48.878;9.394;2023-06-14T06:59:48;41.60;32.70
10468;DHT22;5281;48.878;9.394;2023-06-14T07:02:14;41.60;32.40
10468;DHT22;5281;48.878;9.394;2023-06-14T07:04:41;41.50;32.80
10468;DHT22;5281;48.878;9.394;2023-06-14T07:07:09;41.00;32.70
10468;DHT22;5281;48.878;9.394;2023-06-14T07:09:36;40.70;32.90
10468;DHT22;5281;48.878;9.394;2023-06-14T07:12:03;40.60;33.30
10468;DHT22;5281;48.878;9.394;2023-06-14T07:14:30;40.00;33.40
10468;DHT22;5281;48.878;9.394;2023-06-14T07:16:57;39.60;33.80
10468;DHT22;5281;48.878;9.394;2023-06-14T07:19:23;39.60;33.80
10468;DHT22;5281;48.878;9.394;2023-06-14T07:21:50;39.80;34.00
10468;DHT22;5281;48.878;9.394;2023-06-14T07:24:19;39.70;33.90
10468;DHT22;5281;48.878;9.394;2023-06-14T07:26:46;40.40;33.70
10468;DHT22;5281;48.878;9.394;2023-06-14T07:29:14;40.00;33.90
10468;DHT22;5281;48.878;9.394;2023-06-14T07:31:41;39.90;33.70
10468;DHT22;5281;48.878;9.394;2023-06-14T07:34:08;40.80;32.50
10468;DHT22;5281;48.878;9.394;2023-06-14T07:36:35;41.50;31.90
10468;DHT22;5281;48.878;9.394;2023-06-14T07:39:03;41.30;32.00
10468;DHT22;5281;48.878;9.394;2023-06-14T07:41:33;41.80;32.00
10468;DHT22;5281;48.878;9.394;2023-06-14T07:43:59;42.80;30.60
10468;DHT22;5281;48.878;9.394;2023-06-14T07:46:26;42.80;30.40
10468;DHT22;5281;48.878;9.394;2023-06-14T07:48:53;41.90;31.00
10468;DHT22;5281;48.878;9.394;2023-06-14T07:51:20;41.40;31.50
10468;DHT22;5281;48.878;9.394;2023-06-14T07:53:48;41.20;32.30
10468;DHT22;5281;48.878;9.394;2023-06-14T07:56:14;40.00;32.80
10468;DHT22;5281;48.878;9.394;2023-06-14T07:58:43;38.70;34.50
10468;DHT22;5281;48.878;9.394;2023-06-14T08:01:10;38.50;34.30
10468;DHT22;5281;48.878;9.394;2023-06-14T08:03:37;39.10;34.00
10468;DHT22;5281;48.878;9.394;2023-06-14T08:06:06;38.60;34.30
10468;DHT22;5281;48.878;9.394;2023-06-14T08:08:33;38.20;35.00
10468;DHT22;5281;48.878;9.394;2023-06-14T08:11:00;38.20;34.50
10468;DHT22;5281;48.878;9.394;2023-06-14T08:13:26;38.30;34.40
10468;DHT22;5281;48.878;9.394;2023-06-14T08:15:55;38.80;34.20
10468;DHT22;5281;48.878;9.394;2023-06-14T08:18:22;39.10;33.80
10468;DHT22;5281;48.878;9.394;2023-06-14T08:20:49;39.30;33.70
10468;DHT22;5281;48.878;9.394;2023-06-14T08:23:17;39.30;34.00
10468;DHT22;5281;48.878;9.394;2023-06-14T08:25:46;39.20;34.20
10468;DHT22;5281;48.878;9.394;2023-06-14T08:28:13;38.80;34.10
10468;DHT22;5281;48.878;9.394;2023-06-14T08:30:40;38.00;34.90
10468;DHT22;5281;48.878;9.394;2023-06-14T08:33:09;37.70;35.40
10468;DHT22;5281;48.878;9.394;2023-06-14T08:35:36;37.70;35.50
10468;DHT22;5281;48.878;9.394;2023-06-14T08:38:04;37.60;35.00
10468;DHT22;5281;48.878;9.394;2023-06-14T08:40:31;37.20;35.00
10468;DHT22;5281;48.878;9.394;2023-06-14T08:43:03;36.80;35.20
10468;DHT22;5281;48.878;9.394;2023-06-14T08:45:30;36.20;35.30
10468;DHT22;5281;48.878;9.394;2023-06-14T08:47:57;35.80;36.00
10468;DHT22;5281;48.878;9.394;2023-06-14T08:50:27;35.10;36.90
10468;DHT22;5281;48.878;9.394;2023-06-14T08:52:56;34.10;38.30
10468;DHT22;5281;48.878;9.394;2023-06-14T08:55:27;32.80;39.40
10468;DHT22;5281;48.878;9.394;2023-06-14T08:57:55;31.10;41.40
10468;DHT22;5281;48.878;9.394;2023-06-14T09:00:24;29.70;43.10
10468;DHT22;5281;48.878;9.394;2023-06-14T09:02:51;28.50;44.90
10468;DHT22;5281;48.878;9.394;2023-06-14T09:05:23;27.40;46.50
10468;DHT22;5281;48.878;9.394;2023-06-14T09:07:51;26.60;47.40
10468;DHT22;5281;48.878;9.394;2023-06-14T09:10:21;26.20;48.50
10468;DHT22;5281;48.878;9.394;2023-06-14T09:12:48;25.80;47.90
10468;DHT22;5281;48.878;9.394;2023-06-14T09:15:14;25.60;50.00
10468;DHT22;5281;48.878;9.394;2023-06-14T09:17:42;25.40;51.30
10468;DHT22;5281;48.878;9.394;2023-06-14T09:20:09;25.30;51.50
10468;DHT22;5281;48.878;9.394;2023-06-14T09:22:39;25.20;51.60
10468;DHT22;5281;48.878;9.394;2023-06-14T09:25:09;25.10;51.40
10468;DHT22;5281;48.878;9.394;2023-06-14T09:27:36;25.20;51.30
10468;DHT22;5281;48.878;9.394;2023-06-14T09:30:06;25.10;51.20
10468;DHT22;5281;48.878;9.394;2023-06-14T09:32:36;25.10;51.90
10468;DHT22;5281;48.878;9.394;2023-06-14T09:35:04;25.10;51.80
10468;DHT22;5281;48.878;9.394;2023-06-14T09:37:32;25.00;51.40
10468;DHT22;5281;48.878;9.394;2023-06-14T09:39:59;25.10;50.10
10468;DHT22;5281;48.878;9.394;2023-06-14T09:42:27;25.30;50.50
10468;DHT22;5281;48.878;9.394;2023-06-14T09:44:56;25.30;50.50
10468;DHT22;5281;48.878;9.394;2023-06-14T09:47:24;25.50;49.50
10468;DHT22;5281;48.878;9.394;2023-06-14T09:49:51;25.60;50.30
10468;DHT22;5281;48.878;9.394;2023-06-14T09:52:21;25.90;50.10
10468;DHT22;5281;48.878;9.394;2023-06-14T09:54:48;26.10;48.50
10468;DHT22;5281;48.878;9.394;2023-06-14T09:57:17;26.20;46.70
10468;DHT22;5281;48.878;9.394;2023-06-14T09:59:49;26.30;45.00
10468;DHT22;5281;48.878;9.394;2023-06-14T10:02:22;26.20;45.40
10468;DHT22;5281;48.878;9.394;2023-06-14T10:04:55;26.40;46.30
10468;DHT22;5281;48.878;9.394;2023-06-14T10:07:26;26.70;46.60
10468;DHT22;5281;48.878;9.394;2023-06-14T10:09:56;27.00;44.70
10468;DHT22;5281;48.878;9.394;2023-06-14T10:12:23;27.10;44.40
10468;DHT22;5281;48.878;9.394;2023-06-14T10:14:51;27.20;43.70
10468;DHT22;5281;48.878;9.394;2023-06-14T10:17:24;27.20;42.20
10468;DHT22;5281;48.878;9.394;2023-06-14T10:19:55;27.00;43.00
10468;DHT22;5281;48.878;9.394;2023-06-14T10:22:30;27.00;44.50
10468;DHT22;5281;48.878;9.394;2023-06-14T10:24:59;26.80;45.50
10468;DHT22;5281;48.878;9.394;2023-06-14T10:27:26;26.70;45.80
10468;DHT22;5281;48.878;9.394;2023-06-14T10:30:04;26.70;45.60
10468;DHT22;5281;48.878;9.394;2023-06-14T10:32:31;26.90;45.60
10468;DHT22;5281;48.878;9.394;2023-06-14T10:35:00;26.90;44.60
10468;DHT22;5281;48.878;9.394;2023-06-14T10:37:27;27.10;44.40
10468;DHT22;5281;48.878;9.394;2023-06-14T10:39:54;26.80;44.60
10468;DHT22;5281;48.878;9.394;2023-06-14T10:42:21;26.70;44.90
10468;DHT22;5281;48.878;9.394;2023-06-14T10:44:52;26.60;44.90
10468;DHT22;5281;48.878;9.394;2023-06-14T10:47:24;26.70;45.40
10468;DHT22;5281;48.878;9.394;2023-06-14T10:49:53;27.00;43.90
10468;DHT22;5281;48.878;9.394;2023-06-14T10:52:26;27.20;44.20
10468;DHT22;5281;48.878;9.394;2023-06-14T10:55:08;27.50;44.10
10468;DHT22;5281;48.878;9.394;2023-06-14T10:57:42;27.40;44.30
10468;DHT22;5281;48.878;9.394;2023-06-14T11:00:12;27.00;45.00
10468;DHT22;5281;48.878;9.394;2023-06-14T11:03:20;26.70;44.10
10468;DHT22;5281;48.878;9.394;2023-06-14T11:05:52;26.30;44.90
10468;DHT22;5281;48.878;9.394;2023-06-14T11:08:36;26.20;44.10
10468;DHT22;5281;48.878;9.394;2023-06-14T11:11:06;26.20;44.30
10468;DHT22;5281;48.878;9.394;2023-06-14T11:13:33;26.40;44.60
10468;DHT22;5281;48.878;9.394;2023-06-14T11:16:00;26.60;44.30
10468;DHT22;5281;48.878;9.394;2023-06-14T11:18:29;26.70;44.10
10468;DHT22;5281;48.878;9.394;2023-06-14T11:20:56;26.80;43.30
10468;DHT22;5281;48.878;9.394;2023-06-14T11:23:23;26.90;42.20
10468;DHT22;5281;48.878;9.394;2023-06-14T11:25:50;27.40;43.00
10468;DHT22;5281;48.878;9.394;2023-06-14T11:28:17;27.80;42.30
10468;DHT22;5281;48.878;9.394;2023-06-14T11:30:45;28.00;42.60
10468;DHT22;5281;48.878;9.394;2023-06-14T11:33:16;28.00;42.80
10468;DHT22;5281;48.878;9.394;2023-06-14T11:35:45;27.90;43.10
10468;DHT22;5281;48.878;9.394;2023-06-14T11:38:12;27.90;43.10
10468;DHT22;5281;48.878;9.394;2023-06-14T11:40:39;28.00;43.10
10468;DHT22;5281;48.878;9.394;2023-06-14T11:43:06;28.20;43.50
10468;DHT22;5281;48.878;9.394;2023-06-14T11:45:32;28.30;43.50
10468;DHT22;5281;48.878;9.394;2023-06-14T11:47:59;28.30;43.20
10468;DHT22;5281;48.878;9.394;2023-06-14T11:50:26;28.40;43.40
10468;DHT22;5281;48.878;9.394;2023-06-14T11:52:55;28.40;43.70
10468;DHT22;5281;48.878;9.394;2023-06-14T11:55:22;28.20;44.30
10468;DHT22;5281;48.878;9.394;2023-06-14T11:57:49;28.00;44.00
10468;DHT22;5281;48.878;9.394;2023-06-14T12:00:17;27.80;44.40
10468;DHT22;5281;48.878;9.394;2023-06-14T12:02:52;27.70;44.40
10468;DHT22;5281;48.878;9.394;2023-06-14T12:05:21;27.60;44.40
10468;DHT22;5281;48.878;9.394;2023-06-14T12:07:48;27.50;44.30
10468;DHT22;5281;48.878;9.394;2023-06-14T12:10:17;27.40;43.80
10468;DHT22;5281;48.878;9.394;2023-06-14T12:12:44;27.50;43.50
10468;DHT22;5281;48.878;9.394;2023-06-14T12:15:11;27.60;43.70
10468;DHT22;5281;48.878;9.394;2023-06-14T12:17:38;27.70;42.90
10468;DHT22;5281;48.878;9.394;2023-06-14T12:20:08;28.10;43.20
10468;DHT22;5281;48.878;9.394;2023-06-14T12:22:39;28.40;43.10
10468;DHT22;5281;48.878;9.394;2023-06-14T12:25:23;28.70;42.60
10468;DHT22;5281;48.878;9.394;2023-06-14T12:27:52;28.70;42.50
10468;DHT22;5281;48.878;9.394;2023-06-14T12:30:19;28.70;42.50
10468;DHT22;5281;48.878;9.394;2023-06-14T12:32:45;28.70;42.50
10468;DHT22;5281;48.878;9.394;2023-06-14T12:35:12;28.90;42.80
10468;DHT22;5281;48.878;9.394;2023-06-14T12:37:39;29.20;42.70
10468;DHT22;5281;48.878;9.394;2023-06-14T12:40:07;29.50;43.10
10468;DHT22;5281;48.878;9.394;2023-06-14T12:42:35;29.30;42.90
10468;DHT22;5281;48.878;9.394;2023-06-14T12:45:02;29.10;42.80
10468;DHT22;5281;48.878;9.394;2023-06-14T12:47:29;29.10;43.90
10468;DHT22;5281;48.878;9.394;2023-06-14T12:49:56;28.90;43.80
10468;DHT22;5281;48.878;9.394;2023-06-14T12:52:23;28.80;43.70
10468;DHT22;5281;48.878;9.394;2023-06-14T12:54:49;28.60;43.50
10468;DHT22;5281;48.878;9.394;2023-06-14T12:57:16;28.10;44.60
10468;DHT22;5281;48.878;9.394;2023-06-14T12:59:44;27.90;44.90
10468;DHT22;5281;48.878;9.394;2023-06-14T13:02:13;27.70;45.30
10468;DHT22;5281;48.878;9.394;2023-06-14T13:04:39;27.70;45.10
10468;DHT22;5281;48.878;9.394;2023-06-14T13:07:06;27.80;45.50
10468;DHT22;5281;48.878;9.394;2023-06-14T13:09:33;27.80;45.40
10468;DHT22;5281;48.878;9.394;2023-06-14T13:12:00;27.90;44.90
10468;DHT22;5281;48.878;9.394;2023-06-14T13:14:27;27.80;45.10
10468;DHT22;5281;48.878;9.394;2023-06-14T13:16:55;27.70;45.50
10468;DHT22;5281;48.878;9.394;2023-06-14T13:19:22;27.70;45.20
10468;DHT22;5281;48.878;9.394;2023-06-14T13:21:49;27.70;45.00
10468;DHT22;5281;48.878;9.394;2023-06-14T13:24:16;28.00;44.80
10468;DHT22;5281;48.878;9.394;2023-06-14T13:26:42;28.60;44.20
10468;DHT22;5281;48.878;9.394;2023-06-14T13:29:09;28.90;43.60
10468;DHT22;5281;48.878;9.394;2023-06-14T13:31:36;29.30;43.30
10468;DHT22;5281;48.878;9.394;2023-06-14T13:34:04;29.60;43.80
10468;DHT22;5281;48.878;9.394;2023-06-14T13:36:31;29.90;43.30
10468;DHT22;5281;48.878;9.394;2023-06-14T13:38:58;30.10;42.70
10468;DHT22;5281;48.878;9.394;2023-06-14T13:41:26;30.00;42.60
10468;DHT22;5281;48.878;9.394;2023-06-14T13:43:59;29.80;42.80
10468;DHT22;5281;48.878;9.394;2023-06-14T13:46:26;29.60;43.10
10468;DHT22;5281;48.878;9.394;2023-06-14T13:48:53;29.40;43.30
10468;DHT22;5281;48.878;9.394;2023-06-14T13:51:21;29.20;42.90
10468;DHT22;5281;48.878;9.394;2023-06-14T13:53:48;29.00;43.70
10468;DHT22;5281;48.878;9.394;2023-06-14T13:56:17;28.60;43.60
10468;DHT22;5281;48.878;9.394;2023-06-14T13:58:44;28.40;43.90
10468;DHT22;5281;48.878;9.394;2023-06-14T14:01:11;28.20;44.50
10468;DHT22;5281;48.878;9.394;2023-06-14T14:03:38;28.00;45.40
10468;DHT22;5281;48.878;9.394;2023-06-14T14:06:05;28.10;44.60
10468;DHT22;5281;48.878;9.394;2023-06-14T14:08:34;28.30;44.40
10468;DHT22;5281;48.878;9.394;2023-06-14T14:11:01;28.20;44.30
10468;DHT22;5281;48.878;9.394;2023-06-14T14:13:28;28.20;44.30
10468;DHT22;5281;48.878;9.394;2023-06-14T14:15:55;28.30;44.30
10468;DHT22;5281;48.878;9.394;2023-06-14T14:18:21;28.30;44.20
10468;DHT22;5281;48.878;9.394;2023-06-14T14:20:48;28.30;43.80
10468;DHT22;5281;48.878;9.394;2023-06-14T14:23:15;28.30;43.70
10468;DHT22;5281;48.878;9.394;2023-06-14T14:25:43;28.20;43.80
10468;DHT22;5281;48.878;9.394;2023-06-14T14:28:10;28.20;44.00
10468;DHT22;5281;48.878;9.394;2023-06-14T14:30:37;28.20;44.10
10468;DHT22;5281;48.878;9.394;2023-06-14T14:33:05;28.20;44.00
10468;DHT22;5281;48.878;9.394;2023-06-14T14:35:32;28.40;43.40
10468;DHT22;5281;48.878;9.394;2023-06-14T14:37:59;28.60;43.80
10468;DHT22;5281;48.878;9.394;2023-06-14T14:40:28;28.80;44.30
10468;DHT22;5281;48.878;9.394;2023-06-14T14:42:56;28.90;43.20
10468;DHT22;5281;48.878;9.394;2023-06-14T14:45:23;28.80;43.20
10468;DHT22;5281;48.878;9.394;2023-06-14T14:47:50;28.80;43.70
10468;DHT22;5281;48.878;9.394;2023-06-14T14:50:16;28.90;43.60
10468;DHT22;5281;48.878;9.394;2023-06-14T14:52:43;29.00;43.30
10468;DHT22;5281;48.878;9.394;2023-06-14T14:55:11;29.20;43.30
10468;DHT22;5281;48.878;9.394;2023-06-14T14:57:37;29.40;43.00
10468;DHT22;5281;48.878;9.394;2023-06-14T15:00:09;29.40;42.80
10468;DHT22;5281;48.878;9.394;2023-06-14T15:02:35;29.30;43.50
10468;DHT22;5281;48.878;9.394;2023-06-14T15:05:02;29.00;43.30
10468;DHT22;5281;48.878;9.394;2023-06-14T15:07:30;28.80;43.70
10468;DHT22;5281;48.878;9.394;2023-06-14T15:09:59;29.00;43.00
10468;DHT22;5281;48.878;9.394;2023-06-14T15:12:25;29.00;42.90
10468;DHT22;5281;48.878;9.394;2023-06-14T15:14:53;28.90;43.30
10468;DHT22;5281;48.878;9.394;2023-06-14T15:17:21;28.70;43.20
10468;DHT22;5281;48.878;9.394;2023-06-14T15:19:49;28.60;43.50
10468;DHT22;5281;48.878;9.394;2023-06-14T15:22:16;28.50;43.80
10468;DHT22;5281;48.878;9.394;2023-06-14T15:24:43;28.50;44.10
10468;DHT22;5281;48.878;9.394;2023-06-14T15:27:11;28.50;44.10
10468;DHT22;5281;48.878;9.394;2023-06-14T15:29:39;28.50;43.40
10468;DHT22;5281;48.878;9.394;2023-06-14T15:32:06;28.40;43.40
10468;DHT22;5281;48.878;9.394;2023-06-14T15:34:35;28.30;43.70
10468;DHT22;5281;48.878;9.394;2023-06-14T15:37:03;28.20;44.00
10468;DHT22;5281;48.878;9.394;2023-06-14T15:39:30;27.90;44.20
10468;DHT22;5281;48.878;9.394;2023-06-14T15:41:57;27.80;43.80
10468;DHT22;5281;48.878;9.394;2023-06-14T15:44:25;27.70;44.20
10468;DHT22;5281;48.878;9.394;2023-06-14T15:46:52;27.60;44.40
10468;DHT22;5281;48.878;9.394;2023-06-14T15:49:18;27.40;44.50